sensor_id;sensor_type;location;lat;lon;timestamp;temperature;humidity
22006;DHT22;11167;46.988;15.470;2023-05-07T00:01:03;19.00;68.00
22006;DHT22;11167;46.988;15.470;2023-05-07T00:03:06;19.00;67.40
22006;DHT22;11167;46.988;15.470;2023-05-07T00:05:07;18.90;68.00
22006;DHT22;11167;46.988;15.470;2023-05-07T00:07:09;18.90;68.00
22006;DHT22;11167;46.988;15.470;2023-05-07T00:09:10;18.90;68.10
22006;DHT22;11167;46.988;15.470;2023-05-07T00:11:11;18.90;68.10
22006;DHT22;11167;46.988;15.470;2023-05-07T00:13:13;18.90;68.00
22006;DHT22;11167;46.988;15.470;2023-05-07T00:15:14;18.90;68.10
22006;DHT22;11167;46.988;15.470;2023-05-07T00:17:15;18.80;68.10
22006;DHT22;11167;46.988;15.470;2023-05-07T00:19:16;18.80;68.10
22006;DHT22;11167;46.988;15.470;2023-05-07T00:21:17;18.80;68.10
22006;DHT22;11167;46.988;15.470;2023-05-07T00:23:18;18.80;68.10
22006;DHT22;11167;46.988;15.470;2023-05-07T00:25:20;18.80;68.10
22006;DHT22;11167;46.988;15.470;2023-05-07T00:27:21;18.80;68.70
22006;DHT22;11167;46.988;15.470;2023-05-07T00:29:22;18.80;68.10
22006;DHT22;11167;46.988;15.470;2023-05-07T00:31:24;18.70;68.10
22006;DHT22;11167;46.988;15.470;2023-05-07T00:33:25;18.70;68.10
22006;DHT22;11167;46.988;15.470;2023-05-07T00:35:28;18.70;68.90
22006;DHT22;11167;46.988;15.470;2023-05-07T00:37:30;18.70;68.10
22006;DHT22;11167;46.988;15.470;2023-05-07T00:39:31;18.70;68.10
22006;DHT22;11167;46.988;15.470;2023-05-07T00:41:32;18.60;68.00
22006;DHT22;11167;46.988;15.470;2023-05-07T00:43:33;18.60;68.10
22006;DHT22;11167;46.988;15.470;2023-05-07T00:45:35;18.60;68.40
22006;DHT22;11167;46.988;15.470;2023-05-07T00:47:36;18.60;68.90
22006;DHT22;11167;46.988;15.470;2023-05-07T00:49:39;18.60;68.10
22006;DHT22;11167;46.988;15.470;2023-05-07T00:51:42;18.60;68.10
22006;DHT22;11167;46.988;15.470;2023-05-07T00:53:44;18.60;68.20
22006;DHT22;11167;46.988;15.470;2023-05-07T00:55:45;18.60;68.20
22006;DHT22;11167;46.988;15.470;2023-05-07T00:57:46;18.60;68.20
22006;DHT22;11167;46.988;15.470;2023-05-07T00:59:48;18.50;68.10
22006;DHT22;11167;46.988;15.470;2023-05-07T01:01:49;18.50;68.10
22006;DHT22;11167;46.988;15.470;2023-05-07T01:03:50;18.50;68.10
22006;DHT22;11167;46.988;15.470;2023-05-07T01:05:53;18.50;68.10
22006;DHT22;11167;46.988;15.470;2023-05-07T01:07:57;18.50;68.10
22006;DHT22;11167;46.988;15.470;2023-05-07T01:09:58;18.40;68.10
22006;DHT22;11167;46.988;15.470;2023-05-07T01:12:00;18.40;68.10
22006;DHT22;11167;46.988;15.470;2023-05-07T01:14:01;18.40;68.10
22006;DHT22;11167;46.988;15.470;2023-05-07T01:16:03;18.40;68.10
22006;DHT22;11167;46.988;15.470;2023-05-07T01:18:04;18.40;68.20
22006;DHT22;11167;46.988;15.470;2023-05-07T01:20:07;18.40;69.00
22006;DHT22;11167;46.988;15.470;2023-05-07T01:22:09;18.40;68.30
22006;DHT22;11167;46.988;15.470;2023-05-07T01:24:15;18.40;68.30
22006;DHT22;11167;46.988;15.470;2023-05-07T01:26:16;18.30;68.20
22006;DHT22;11167;46.988;15.470;2023-05-07T01:28:19;18.30;68.20
22006;DHT22;11167;46.988;15.470;2023-05-07T01:30:21;18.30;68.20
22006;DHT22;11167;46.988;15.470;2023-05-07T01:32:43;18.30;68.20
22006;DHT22;11167;46.988;15.470;2023-05-07T01:34:48;18.30;68.20
22006;DHT22;11167;46.988;15.470;2023-05-07T01:36:49;18.30;68.30
22006;DHT22;11167;46.988;15.470;2023-05-07T01:38:50;18.20;68.20
22006;DHT22;11167;46.988;15.470;2023-05-07T01:40:52;18.20;69.00
22006;DHT22;11167;46.988;15.470;2023-05-07T01:42:55;18.20;68.30
22006;DHT22;11167;46.988;15.470;2023-05-07T01:44:56;18.20;68.30
22006;DHT22;11167;46.988;15.470;2023-05-07T01:46:58;18.20;68.30
22006;DHT22;11167;46.988;15.470;2023-05-07T01:49:00;18.20;68.30
22006;DHT22;11167;46.988;15.470;2023-05-07T01:51:02;18.20;68.30
22006;DHT22;11167;46.988;15.470;2023-05-07T01:53:03;18.10;68.20
22006;DHT22;11167;46.988;15.470;2023-05-07T01:55:06;18.10;68.30
22006;DHT22;11167;46.988;15.470;2023-05-07T01:57:07;18.10;68.30
22006;DHT22;11167;46.988;15.470;2023-05-07T01:59:08;18.10;68.30
22006;DHT22;11167;46.988;15.470;2023-05-07T02:01:09;18.10;68.30
22006;DHT22;11167;46.988;15.470;2023-05-07T02:03:10;18.10;68.30
22006;DHT22;11167;46.988;15.470;2023-05-07T02:05:13;18.10;68.30
22006;DHT22;11167;46.988;15.470;2023-05-07T02:07:14;18.10;68.30
22006;DHT22;11167;46.988;15.470;2023-05-07T02:09:15;18.00;68.30
22006;DHT22;11167;46.988;15.470;2023-05-07T02:11:16;18.00;68.30
22006;DHT22;11167;46.988;15.470;2023-05-07T02:13:17;18.00;68.70
22006;DHT22;11167;46.988;15.470;2023-05-07T02:15:20;18.00;68.30
22006;DHT22;11167;46.988;15.470;2023-05-07T02:17:22;18.00;68.30
22006;DHT22;11167;46.988;15.470;2023-05-07T02:19:24;18.00;68.40
22006;DHT22;11167;46.988;15.470;2023-05-07T02:21:25;17.90;68.30
22006;DHT22;11167;46.988;15.470;2023-05-07T02:23:26;17.90;68.30
22006;DHT22;11167;46.988;15.470;2023-05-07T02:25:27;17.90;68.30
22006;DHT22;11167;46.988;15.470;2023-05-07T02:27:28;17.90;68.30
22006;DHT22;11167;46.988;15.470;2023-05-07T02:29:29;17.90;68.30
22006;DHT22;11167;46.988;15.470;2023-05-07T02:31:30;17.90;68.50
22006;DHT22;11167;46.988;15.470;2023-05-07T02:33:32;17.80;68.40
22006;DHT22;11167;46.988;15.470;2023-05-07T02:35:33;17.80;68.30
22006;DHT22;11167;46.988;15.470;2023-05-07T02:37:35;17.80;68.30
22006;DHT22;11167;46.988;15.470;2023-05-07T02:39:36;17.80;68.30
22006;DHT22;11167;46.988;15.470;2023-05-07T02:41:38;17.80;68.40
22006;DHT22;11167;46.988;15.470;2023-05-07T02:43:39;17.80;68.30
22006;DHT22;11167;46.988;15.470;2023-05-07T02:45:40;17.80;68.40
22006;DHT22;11167;46.988;15.470;2023-05-07T02:47:41;17.70;68.30
22006;DHT22;11167;46.988;15.470;2023-05-07T02:49:42;17.70;68.30
22006;DHT22;11167;46.988;15.470;2023-05-07T02:51:43;17.70;68.30
22006;DHT22;11167;46.988;15.470;2023-05-07T02:53:44;17.70;68.30
22006;DHT22;11167;46.988;15.470;2023-05-07T02:55:46;17.70;68.40
22006;DHT22;11167;46.988;15.470;2023-05-07T02:57:47;17.60;68.30
22006;DHT22;11167;46.988;15.470;2023-05-07T02:59:48;17.60;68.00
22006;DHT22;11167;46.988;15.470;2023-05-07T03:01:49;17.60;68.30
22006;DHT22;11167;46.988;15.470;2023-05-07T03:03:50;17.60;68.30
22006;DHT22;11167;46.988;15.470;2023-05-07T03:05:51;17.60;68.50
22006;DHT22;11167;46.988;15.470;2023-05-07T03:07:53;17.60;69.20
22006;DHT22;11167;46.988;15.470;2023-05-07T03:09:54;17.50;68.30
22006;DHT22;11167;46.988;15.470;2023-05-07T03:11:56;17.50;68.40
22006;DHT22;11167;46.988;15.470;2023-05-07T03:13:59;17.60;68.50
22006;DHT22;11167;46.988;15.470;2023-05-07T03:16:00;17.50;68.40
22006;DHT22;11167;46.988;15.470;2023-05-07T03:18:01;17.50;68.40
22006;DHT22;11167;46.988;15.470;2023-05-07T03:20:02;17.40;68.30
22006;DHT22;11167;46.988;15.470;2023-05-07T03:22:04;17.40;68.40
22006;DHT22;11167;46.988;15.470;2023-05-07T03:24:05;17.40;68.40
22006;DHT22;11167;46.988;15.470;2023-05-07T03:26:06;17.40;68.40
22006;DHT22;11167;46.988;15.470;2023-05-07T03:28:07;17.40;68.50
22006;DHT22;11167;46.988;15.470;2023-05-07T03:30:09;17.30;68.40
22006;DHT22;11167;46.988;15.470;2023-05-07T03:32:10;17.30;68.40
22006;DHT22;11167;46.988;15.470;2023-05-07T03:34:11;17.30;68.50
22006;DHT22;11167;46.988;15.470;2023-05-07T03:36:13;17.30;68.50
22006;DHT22;11167;46.988;15.470;2023-05-07T03:38:14;17.30;68.50
22006;DHT22;11167;46.988;15.470;2023-05-07T03:40:17;17.30;68.50
22006;DHT22;11167;46.988;15.470;2023-05-07T03:42:18;17.20;68.40
22006;DHT22;11167;46.988;15.470;2023-05-07T03:44:19;17.20;68.50
22006;DHT22;11167;46.988;15.470;2023-05-07T03:46:20;17.20;68.50
22006;DHT22;11167;46.988;15.470;2023-05-07T03:48:21;17.20;68.60
22006;DHT22;11167;46.988;15.470;2023-05-07T03:50:22;17.20;68.60
22006;DHT22;11167;46.988;15.470;2023-05-07T03:52:23;17.20;69.40
22006;DHT22;11167;46.988;15.470;2023-05-07T03:54:28;17.10;68.50
22006;DHT22;11167;46.988;15.470;2023-05-07T03:56:29;17.10;68.50
22006;DHT22;11167;46.988;15.470;2023-05-07T03:58:31;17.10;68.50
22006;DHT22;11167;46.988;15.470;2023-05-07T04:00:33;17.10;68.60
22006;DHT22;11167;46.988;15.470;2023-05-07T04:02:36;17.10;68.60
22006;DHT22;11167;46.988;15.470;2023-05-07T04:04:37;17.00;68.60
22006;DHT22;11167;46.988;15.470;2023-05-07T04:06:38;17.00;68.60
22006;DHT22;11167;46.988;15.470;2023-05-07T04:08:39;17.00;68.60
22006;DHT22;11167;46.988;15.470;2023-05-07T04:10:40;17.00;68.60
22006;DHT22;11167;46.988;15.470;2023-05-07T04:12:41;16.90;68.60
22006;DHT22;11167;46.988;15.470;2023-05-07T04:14:43;16.90;68.60
22006;DHT22;11167;46.988;15.470;2023-05-07T04:16:44;16.90;68.60
22006;DHT22;11167;46.988;15.470;2023-05-07T04:18:45;16.90;68.60
22006;DHT22;11167;46.988;15.470;2023-05-07T04:20:46;16.90;68.60
22006;DHT22;11167;46.988;15.470;2023-05-07T04:22:47;16.80;68.60
22006;DHT22;11167;46.988;15.470;2023-05-07T04:24:48;16.90;68.70
22006;DHT22;11167;46.988;15.470;2023-05-07T04:26:50;16.80;68.60
22006;DHT22;11167;46.988;15.470;2023-05-07T04:28:51;16.80;68.60
22006;DHT22;11167;46.988;15.470;2023-05-07T04:30:53;16.80;68.70
22006;DHT22;11167;46.988;15.470;2023-05-07T04:32:54;16.80;68.80
22006;DHT22;11167;46.988;15.470;2023-05-07T04:34:58;16.70;68.70
22006;DHT22;11167;46.988;15.470;2023-05-07T04:36:59;16.70;68.70
22006;DHT22;11167;46.988;15.470;2023-05-07T04:39:02;16.70;68.70
22006;DHT22;11167;46.988;15.470;2023-05-07T04:41:05;16.70;68.70
22006;DHT22;11167;46.988;15.470;2023-05-07T04:43:07;16.70;68.70
22006;DHT22;11167;46.988;15.470;2023-05-07T04:45:10;16.60;68.70
22006;DHT22;11167;46.988;15.470;2023-05-07T04:47:11;16.60;68.70
22006;DHT22;11167;46.988;15.470;2023-05-07T04:49:12;16.60;68.70
22006;DHT22;11167;46.988;15.470;2023-05-07T04:51:14;16.60;68.80
22006;DHT22;11167;46.988;15.470;2023-05-07T04:53:15;16.60;68.70
22006;DHT22;11167;46.988;15.470;2023-05-07T04:55:16;16.60;68.70
22006;DHT22;11167;46.988;15.470;2023-05-07T04:57:17;16.60;68.80
22006;DHT22;11167;46.988;15.470;2023-05-07T04:59:18;16.50;68.70
22006;DHT22;11167;46.988;15.470;2023-05-07T05:01:19;16.50;69.20
22006;DHT22;11167;46.988;15.470;2023-05-07T05:03:20;16.50;68.80
22006;DHT22;11167;46.988;15.470;2023-05-07T05:05:22;16.50;68.80
22006;DHT22;11167;46.988;15.470;2023-05-07T05:07:24;16.50;68.90
22006;DHT22;11167;46.988;15.470;2023-05-07T05:09:25;16.50;68.80
22006;DHT22;11167;46.988;15.470;2023-05-07T05:11:26;16.50;68.80
22006;DHT22;11167;46.988;15.470;2023-05-07T05:13:27;16.50;68.80
22006;DHT22;11167;46.988;15.470;2023-05-07T05:15:28;16.40;68.80
22006;DHT22;11167;46.988;15.470;2023-05-07T05:17:29;16.40;68.90
22006;DHT22;11167;46.988;15.470;2023-05-07T05:19:30;16.40;68.90
22006;DHT22;11167;46.988;15.470;2023-05-07T05:21:32;16.40;68.90
22006;DHT22;11167;46.988;15.470;2023-05-07T05:23:33;16.40;68.90
22006;DHT22;11167;46.988;15.470;2023-05-07T05:25:34;16.40;68.90
22006;DHT22;11167;46.988;15.470;2023-05-07T05:27:35;16.40;68.90
22006;DHT22;11167;46.988;15.470;2023-05-07T05:29:36;16.40;68.90
22006;DHT22;11167;46.988;15.470;2023-05-07T05:31:37;16.40;69.10
22006;DHT22;11167;46.988;15.470;2023-05-07T05:33:39;16.40;68.90
22006;DHT22;11167;46.988;15.470;2023-05-07T05:35:42;16.30;68.90
22006;DHT22;11167;46.988;15.470;2023-05-07T05:37:43;16.30;68.90
22006;DHT22;11167;46.988;15.470;2023-05-07T05:39:44;16.30;68.90
22006;DHT22;11167;46.988;15.470;2023-05-07T05:41:46;16.30;68.90
22006;DHT22;11167;46.988;15.470;2023-05-07T05:43:48;16.30;68.90
22006;DHT22;11167;46.988;15.470;2023-05-07T05:45:49;16.30;68.90
22006;DHT22;11167;46.988;15.470;2023-05-07T05:47:50;16.30;68.90
22006;DHT22;11167;46.988;15.470;2023-05-07T05:49:51;16.30;68.90
22006;DHT22;11167;46.988;15.470;2023-05-07T05:51:52;16.30;68.90
22006;DHT22;11167;46.988;15.470;2023-05-07T05:53:53;16.30;68.90
22006;DHT22;11167;46.988;15.470;2023-05-07T05:55:54;16.30;69.00
22006;DHT22;11167;46.988;15.470;2023-05-07T05:57:56;16.20;68.90
22006;DHT22;11167;46.988;15.470;2023-05-07T05:59:57;16.20;68.90
22006;DHT22;11167;46.988;15.470;2023-05-07T06:01:58;16.20;68.90
22006;DHT22;11167;46.988;15.470;2023-05-07T06:03:59;16.20;68.90
22006;DHT22;11167;46.988;15.470;2023-05-07T06:06:00;16.20;68.90
22006;DHT22;11167;46.988;15.470;2023-05-07T06:08:01;16.20;68.90
22006;DHT22;11167;46.988;15.470;2023-05-07T06:10:03;16.20;69.00
22006;DHT22;11167;46.988;15.470;2023-05-07T06:12:05;16.20;68.90
22006;DHT22;11167;46.988;15.470;2023-05-07T06:14:07;16.20;68.90
22006;DHT22;11167;46.988;15.470;2023-05-07T06:16:08;16.20;68.90
22006;DHT22;11167;46.988;15.470;2023-05-07T06:18:09;16.20;68.90
22006;DHT22;11167;46.988;15.470;2023-05-07T06:20:10;16.20;68.90
22006;DHT22;11167;46.988;15.470;2023-05-07T06:22:11;16.20;68.90
22006;DHT22;11167;46.988;15.470;2023-05-07T06:24:12;16.20;68.90
22006;DHT22;11167;46.988;15.470;2023-05-07T06:26:14;16.20;68.90
22006;DHT22;11167;46.988;15.470;2023-05-07T06:28:15;16.20;69.00
22006;DHT22;11167;46.988;15.470;2023-05-07T06:30:16;16.20;69.00
22006;DHT22;11167;46.988;15.470;2023-05-07T06:32:18;16.20;69.00
22006;DHT22;11167;46.988;15.470;2023-05-07T06:34:19;16.20;69.00
22006;DHT22;11167;46.988;15.470;2023-05-07T06:36:20;16.20;69.00
22006;DHT22;11167;46.988;15.470;2023-05-07T06:38:21;16.20;69.00
22006;DHT22;11167;46.988;15.470;2023-05-07T06:40:22;16.20;69.00
22006;DHT22;11167;46.988;15.470;2023-05-07T06:42:23;16.20;69.00
22006;DHT22;11167;46.988;15.470;2023-05-07T06:44:25;16.20;69.00
22006;DHT22;11167;46.988;15.470;2023-05-07T06:46:27;16.20;69.10
22006;DHT22;11167;46.988;15.470;2023-05-07T06:48:28;16.20;69.10
22006;DHT22;11167;46.988;15.470;2023-05-07T06:50:30;16.20;69.10
22006;DHT22;11167;46.988;15.470;2023-05-07T06:52:31;16.20;69.10
22006;DHT22;11167;46.988;15.470;2023-05-07T06:54:32;16.20;69.10
22006;DHT22;11167;46.988;15.470;2023-05-07T06:56:33;16.20;69.10
22006;DHT22;11167;46.988;15.470;2023-05-07T06:58:35;16.20;69.10
22006;DHT22;11167;46.988;15.470;2023-05-07T07:00:36;16.20;69.10
22006;DHT22;11167;46.988;15.470;2023-05-07T07:02:37;16.20;69.10
22006;DHT22;11167;46.988;15.470;2023-05-07T07:04:38;16.20;69.20
22006;DHT22;11167;46.988;15.470;2023-05-07T07:06:39;16.20;69.30
22006;DHT22;11167;46.988;15.470;2023-05-07T07:08:40;16.20;70.10
22006;DHT22;11167;46.988;15.470;2023-05-07T07:10:41;16.20;69.30
22006;DHT22;11167;46.988;15.470;2023-05-07T07:12:42;16.30;69.50
22006;DHT22;11167;46.988;15.470;2023-05-07T07:14:44;16.30;69.40
22006;DHT22;11167;46.988;15.470;2023-05-07T07:16:45;16.20;69.40
22006;DHT22;11167;46.988;15.470;2023-05-07T07:18:47;16.30;69.50
22006;DHT22;11167;46.988;15.470;2023-05-07T07:20:48;16.30;69.50
22006;DHT22;11167;46.988;15.470;2023-05-07T07:22:49;16.30;69.60
22006;DHT22;11167;46.988;15.470;2023-05-07T07:24:52;16.30;69.60
22006;DHT22;11167;46.988;15.470;2023-05-07T07:26:53;16.30;69.70
22006;DHT22;11167;46.988;15.470;2023-05-07T07:28:56;16.30;69.70
22006;DHT22;11167;46.988;15.470;2023-05-07T07:30:57;16.30;69.70
22006;DHT22;11167;46.988;15.470;2023-05-07T07:32:58;16.30;69.70
22006;DHT22;11167;46.988;15.470;2023-05-07T07:35:04;16.40;69.90
22006;DHT22;11167;46.988;15.470;2023-05-07T07:37:05;16.40;69.90
22006;DHT22;11167;46.988;15.470;2023-05-07T07:39:07;16.40;69.90
22006;DHT22;11167;46.988;15.470;2023-05-07T07:41:08;16.40;69.90
22006;DHT22;11167;46.988;15.470;2023-05-07T07:43:10;16.40;70.00
22006;DHT22;11167;46.988;15.470;2023-05-07T07:45:12;16.40;70.00
22006;DHT22;11167;46.988;15.470;2023-05-07T07:47:13;16.40;70.00
22006;DHT22;11167;46.988;15.470;2023-05-07T07:49:14;16.50;70.20
22006;DHT22;11167;46.988;15.470;2023-05-07T07:51:16;16.40;70.20
22006;DHT22;11167;46.988;15.470;2023-05-07T07:53:17;16.50;70.30
22006;DHT22;11167;46.988;15.470;2023-05-07T07:55:20;16.50;70.30
22006;DHT22;11167;46.988;15.470;2023-05-07T07:57:23;16.50;70.30
22006;DHT22;11167;46.988;15.470;2023-05-07T07:59:24;16.50;70.40
22006;DHT22;11167;46.988;15.470;2023-05-07T08:01:25;16.60;70.50
22006;DHT22;11167;46.988;15.470;2023-05-07T08:03:26;16.60;70.40
22006;DHT22;11167;46.988;15.470;2023-05-07T08:05:29;16.60;70.90
22006;DHT22;11167;46.988;15.470;2023-05-07T08:07:30;16.60;70.50
22006;DHT22;11167;46.988;15.470;2023-05-07T08:09:31;16.60;70.60
22006;DHT22;11167;46.988;15.470;2023-05-07T08:11:33;16.60;70.70
22006;DHT22;11167;46.988;15.470;2023-05-07T08:13:34;16.70;70.90
22006;DHT22;11167;46.988;15.470;2023-05-07T08:15:35;16.70;70.90
22006;DHT22;11167;46.988;15.470;2023-05-07T08:17:36;16.70;70.90
22006;DHT22;11167;46.988;15.470;2023-05-07T08:19:37;16.70;71.00
22006;DHT22;11167;46.988;15.470;2023-05-07T08:21:39;16.80;71.10
22006;DHT22;11167;46.988;15.470;2023-05-07T08:26:38;16.80;71.10
22006;DHT22;11167;46.988;15.470;2023-05-07T08:28:40;16.80;71.20
22006;DHT22;11167;46.988;15.470;2023-05-07T08:30:41;16.80;71.20
22006;DHT22;11167;46.988;15.470;2023-05-07T08:32:42;16.90;71.30
22006;DHT22;11167;46.988;15.470;2023-05-07T08:34:43;16.90;71.30
22006;DHT22;11167;46.988;15.470;2023-05-07T08:36:44;16.90;71.40
22006;DHT22;11167;46.988;15.470;2023-05-07T08:38:47;16.90;71.40
22006;DHT22;11167;46.988;15.470;2023-05-07T08:40:48;17.00;71.50
22006;DHT22;11167;46.988;15.470;2023-05-07T08:42:51;17.00;71.40
22006;DHT22;11167;46.988;15.470;2023-05-07T08:44:55;17.00;71.50
22006;DHT22;11167;46.988;15.470;2023-05-07T08:46:58;17.00;71.50
22006;DHT22;11167;46.988;15.470;2023-05-07T08:49:01;17.00;71.50
22006;DHT22;11167;46.988;15.470;2023-05-07T08:51:03;17.10;71.60
22006;DHT22;11167;46.988;15.470;2023-05-07T08:53:04;17.10;71.60
22006;DHT22;11167;46.988;15.470;2023-05-07T08:55:07;17.10;71.60
22006;DHT22;11167;46.988;15.470;2023-05-07T08:57:08;17.10;71.70
22006;DHT22;11167;46.988;15.470;2023-05-07T08:59:09;17.20;71.80
22006;DHT22;11167;46.988;15.470;2023-05-07T09:01:15;17.20;71.80
22006;DHT22;11167;46.988;15.470;2023-05-07T09:03:17;17.30;71.90
22006;DHT22;11167;46.988;15.470;2023-05-07T09:05:19;17.30;71.90
22006;DHT22;11167;46.988;15.470;2023-05-07T09:07:20;17.30;71.90
22006;DHT22;11167;46.988;15.470;2023-05-07T09:09:22;17.40;71.90
22006;DHT22;11167;46.988;15.470;2023-05-07T09:11:24;17.40;71.90
22006;DHT22;11167;46.988;15.470;2023-05-07T09:13:27;17.40;71.90
22006;DHT22;11167;46.988;15.470;2023-05-07T09:15:28;17.40;71.90
22006;DHT22;11167;46.988;15.470;2023-05-07T09:17:29;17.50;72.10
22006;DHT22;11167;46.988;15.470;2023-05-07T09:19:30;17.50;72.10
22006;DHT22;11167;46.988;15.470;2023-05-07T09:21:31;17.50;72.10
22006;DHT22;11167;46.988;15.470;2023-05-07T09:23:32;17.50;72.10
22006;DHT22;11167;46.988;15.470;2023-05-07T09:25:35;17.60;72.20
22006;DHT22;11167;46.988;15.470;2023-05-07T09:27:36;17.60;72.20
22006;DHT22;11167;46.988;15.470;2023-05-07T09:29:37;17.60;72.10
22006;DHT22;11167;46.988;15.470;2023-05-07T09:31:38;17.60;72.30
22006;DHT22;11167;46.988;15.470;2023-05-07T09:33:40;17.70;72.30
22006;DHT22;11167;46.988;15.470;2023-05-07T09:35:41;17.70;72.40
22006;DHT22;11167;46.988;15.470;2023-05-07T09:37:42;17.80;72.40
22006;DHT22;11167;46.988;15.470;2023-05-07T09:39:45;17.80;72.50
22006;DHT22;11167;46.988;15.470;2023-05-07T09:41:47;17.80;72.50
22006;DHT22;11167;46.988;15.470;2023-05-07T09:43:54;17.80;72.50
22006;DHT22;11167;46.988;15.470;2023-05-07T09:45:56;17.90;72.70
22006;DHT22;11167;46.988;15.470;2023-05-07T09:50:29;18.00;72.60
22006;DHT22;11167;46.988;15.470;2023-05-07T09:52:31;18.00;72.60
22006;DHT22;11167;46.988;15.470;2023-05-07T09:54:36;18.00;72.60
22006;DHT22;11167;46.988;15.470;2023-05-07T09:56:39;18.00;72.50
22006;DHT22;11167;46.988;15.470;2023-05-07T09:58:42;18.10;72.70
22006;DHT22;11167;46.988;15.470;2023-05-07T10:00:45;18.10;74.10
22006;DHT22;11167;46.988;15.470;2023-05-07T10:02:49;18.10;72.90
22006;DHT22;11167;46.988;15.470;2023-05-07T10:04:54;18.20;72.80
22006;DHT22;11167;46.988;15.470;2023-05-07T10:06:55;18.20;72.80
22006;DHT22;11167;46.988;15.470;2023-05-07T10:08:57;18.20;72.80
22006;DHT22;11167;46.988;15.470;2023-05-07T10:11:00;18.30;73.70
22006;DHT22;11167;46.988;15.470;2023-05-07T10:13:02;18.30;72.80
22006;DHT22;11167;46.988;15.470;2023-05-07T10:15:06;18.40;72.80
22006;DHT22;11167;46.988;15.470;2023-05-07T10:17:09;18.40;72.80
22006;DHT22;11167;46.988;15.470;2023-05-07T10:19:12;18.40;72.80
22006;DHT22;11167;46.988;15.470;2023-05-07T10:21:18;18.40;72.80
22006;DHT22;11167;46.988;15.470;2023-05-07T10:23:23;18.40;72.80
22006;DHT22;11167;46.988;15.470;2023-05-07T10:25:32;18.50;72.80
22006;DHT22;11167;46.988;15.470;2023-05-07T10:27:34;18.50;72.90
22006;DHT22;11167;46.988;15.470;2023-05-07T10:33:58;18.60;73.00
22006;DHT22;11167;46.988;15.470;2023-05-07T10:36:01;18.60;73.00
22006;DHT22;11167;46.988;15.470;2023-05-07T10:38:05;18.70;73.00
22006;DHT22;11167;46.988;15.470;2023-05-07T10:40:09;18.70;73.00
22006;DHT22;11167;46.988;15.470;2023-05-07T10:42:12;18.80;73.00
22006;DHT22;11167;46.988;15.470;2023-05-07T10:44:25;18.70;73.00
22006;DHT22;11167;46.988;15.470;2023-05-07T10:46:27;18.80;73.10
22006;DHT22;11167;46.988;15.470;2023-05-07T10:48:28;18.80;73.10
22006;DHT22;11167;46.988;15.470;2023-05-07T10:50:29;18.90;73.20
22006;DHT22;11167;46.988;15.470;2023-05-07T10:52:30;18.90;73.10
22006;DHT22;11167;46.988;15.470;2023-05-07T10:54:31;18.90;73.10
22006;DHT22;11167;46.988;15.470;2023-05-07T10:56:34;18.90;73.20
22006;DHT22;11167;46.988;15.470;2023-05-07T10:58:36;19.00;73.10
22006;DHT22;11167;46.988;15.470;2023-05-07T11:00:41;19.00;73.10
22006;DHT22;11167;46.988;15.470;2023-05-07T11:05:23;19.10;73.10
22006;DHT22;11167;46.988;15.470;2023-05-07T11:07:27;19.10;73.30
22006;DHT22;11167;46.988;15.470;2023-05-07T11:11:50;19.10;73.20
22006;DHT22;11167;46.988;15.470;2023-05-07T11:13:57;19.20;73.30
22006;DHT22;11167;46.988;15.470;2023-05-07T11:15:58;19.20;73.30
22006;DHT22;11167;46.988;15.470;2023-05-07T11:18:00;19.30;73.40
22006;DHT22;11167;46.988;15.470;2023-05-07T11:20:02;19.30;73.40
22006;DHT22;11167;46.988;15.470;2023-05-07T11:22:03;19.30;73.50
22006;DHT22;11167;46.988;15.470;2023-05-07T11:24:06;19.40;73.50
22006;DHT22;11167;46.988;15.470;2023-05-07T11:26:08;19.40;73.40
22006;DHT22;11167;46.988;15.470;2023-05-07T11:28:10;19.40;73.50
22006;DHT22;11167;46.988;15.470;2023-05-07T11:30:17;19.50;73.50
22006;DHT22;11167;46.988;15.470;2023-05-07T11:32:29;19.50;73.50
22006;DHT22;11167;46.988;15.470;2023-05-07T11:34:28;19.50;73.50
22006;DHT22;11167;46.988;15.470;2023-05-07T11:36:32;19.50;73.50
22006;DHT22;11167;46.988;15.470;2023-05-07T11:38:37;19.60;73.60
22006;DHT22;11167;46.988;15.470;2023-05-07T11:40:58;19.60;73.60
22006;DHT22;11167;46.988;15.470;2023-05-07T11:42:52;19.70;73.60
22006;DHT22;11167;46.988;15.470;2023-05-07T11:44:53;19.70;73.60
22006;DHT22;11167;46.988;15.470;2023-05-07T11:46:54;19.70;73.60
22006;DHT22;11167;46.988;15.470;2023-05-07T11:48:56;19.80;73.70
22006;DHT22;11167;46.988;15.470;2023-05-07T11:51:05;19.80;73.70
22006;DHT22;11167;46.988;15.470;2023-05-07T11:53:09;19.80;73.60
22006;DHT22;11167;46.988;15.470;2023-05-07T11:55:10;19.90;73.70
22006;DHT22;11167;46.988;15.470;2023-05-07T11:57:15;19.90;73.70
22006;DHT22;11167;46.988;15.470;2023-05-07T11:59:19;19.90;73.70
22006;DHT22;11167;46.988;15.470;2023-05-07T12:01:20;20.00;73.70
22006;DHT22;11167;46.988;15.470;2023-05-07T12:03:21;20.00;73.80
22006;DHT22;11167;46.988;15.470;2023-05-07T12:05:22;20.10;73.80
22006;DHT22;11167;46.988;15.470;2023-05-07T12:07:24;20.10;73.80
22006;DHT22;11167;46.988;15.470;2023-05-07T12:09:26;20.10;73.80
22006;DHT22;11167;46.988;15.470;2023-05-07T12:11:27;20.10;73.90
22006;DHT22;11167;46.988;15.470;2023-05-07T12:13:28;20.20;74.70
22006;DHT22;11167;46.988;15.470;2023-05-07T12:15:29;20.20;73.80
22006;DHT22;11167;46.988;15.470;2023-05-07T12:17:30;20.30;73.90
22006;DHT22;11167;46.988;15.470;2023-05-07T12:19:31;20.30;73.90
22006;DHT22;11167;46.988;15.470;2023-05-07T12:21:34;20.30;73.80
22006;DHT22;11167;46.988;15.470;2023-05-07T12:23:37;20.30;73.80
22006;DHT22;11167;46.988;15.470;2023-05-07T12:25:39;20.40;73.90
22006;DHT22;11167;46.988;15.470;2023-05-07T12:27:41;20.40;73.90
22006;DHT22;11167;46.988;15.470;2023-05-07T12:29:47;20.40;73.90
22006;DHT22;11167;46.988;15.470;2023-05-07T12:31:49;20.50;73.90
22006;DHT22;11167;46.988;15.470;2023-05-07T12:33:51;20.50;73.90
22006;DHT22;11167;46.988;15.470;2023-05-07T12:35:54;20.50;73.90
22006;DHT22;11167;46.988;15.470;2023-05-07T12:38:00;20.60;73.90
22006;DHT22;11167;46.988;15.470;2023-05-07T12:40:10;20.60;73.90
22006;DHT22;11167;46.988;15.470;2023-05-07T12:42:19;20.60;74.00
22006;DHT22;11167;46.988;15.470;2023-05-07T12:44:22;20.70;74.00
22006;DHT22;11167;46.988;15.470;2023-05-07T12:46:24;20.70;74.00
22006;DHT22;11167;46.988;15.470;2023-05-07T12:48:26;20.80;74.00
22006;DHT22;11167;46.988;15.470;2023-05-07T12:50:33;20.80;73.90
22006;DHT22;11167;46.988;15.470;2023-05-07T12:52:35;20.80;74.00